Impacts METAR Board INFO
IDs:

KIAH - Houston/Bush Intl, TX, US

Updated at: 1452 UTC 16 Dec 2017
Potential Impact None Slight Moderate High
Time16/02Z 16/03Z 16/04Z 16/05Z 16/06Z 16/07Z 16/08Z 16/09Z 16/10Z 16/11Z 16/12Z 16/13Z 16/14Z
VIS10 10 10 10 10 10 10 10 10 10 10 10 10
CIG180 180 180 170 250 170 250 100 100 90 85 80 70
CoverOVCOVCBKNBKNBKNBKNBKNBKNOVCOVCOVCOVCOVC
FltCatVFRVFRVFRVFRVFRVFRVFRVFRVFRVFRVFRVFRVFR
WX--------------------------
WDir19019021022000000010090
WSpd3 4 3 3 0 0 0 0 0 0 3 0 4
WGst-- -- -- -- -- -- -- -- -- -- -- -- --
Raw hourly METARs
KIAH 160153Z 19003KT 10SM OVC180 09/03 A3027 RMK AO2 SLP251 T00890033
KIAH 160253Z 19004KT 10SM OVC180 08/03 A3029 RMK AO2 SLP256 T00830033 51012
KIAH 160353Z 21003KT 10SM BKN180 BKN220 07/04 A3029 RMK AO2 SLP258 T00720039
KIAH 160453Z 22003KT 10SM BKN170 BKN250 06/04 A3028 RMK AO2 SLP256 T00560039
KIAH 160553Z 00000KT 10SM FEW100 SCT170 BKN250 06/04 A3027 RMK AO2 SLP250 T00610039 10100 20056 401390056 58006
KIAH 160653Z 00000KT 10SM FEW100 BKN170 BKN250 06/04 A3026 RMK AO2 SLP247 T00610039
KIAH 160753Z 00000KT 10SM SCT170 BKN250 04/03 A3025 RMK AO2 SLP243 T00390033
KIAH 160853Z 00000KT 10SM BKN100 BKN170 BKN250 06/04 A3025 RMK AO2 SLP242 T00560044 56007
KIAH 160953Z 00000KT 10SM BKN100 OVC200 07/05 A3022 RMK AO2 SLP235 T00670050
KIAH 161053Z 00000KT 10SM OVC090 08/06 A3021 RMK AO2 SLP232 T00780056
KIAH 161153Z 01003KT 10SM OVC085 08/06 A3022 RMK AO2 SLP233 T00830061 10083 20033 55009
KIAH 161253Z 00000KT 10SM BKN080 OVC200 08/06 A3023 RMK AO2 SLP237 T00830061
KIAH 161353Z 09004KT 10SM BKN070 OVC200 08/07 A3022 RMK AO2 SLP235 T00830067